In Rescue
 
Open Full Screen Window  High Contrast Mode
Wind Gusting 00 knots
04
May 13, 2021 8:05 AM PDT
Present Weather: Mist
Weather Information
Wind Direction
  250 °
Wind Speed
  04 kt (5 mph)
Wind Gust
  00 kt (0 mph)
Altimeter
30.09 in
Visibility
6 SM
Temperature
10° C
50° F
Dewpoint
09° C
48° F
Humidity
94%
1hr Rain Fall
00.00 in.
24hr Rain Fall
00.00 in.
Sky Condition
Overcast @ 200 ft
LIFR

METAR KCVH 131505Z AUTO 25004KT 6SM BR OVC002 10/09 A3009 RMK A01

FAA Disclaimer: The data displayed is for advisory purposes only and is not to be used for flight planning or operations.